This is the latest recevied weather packets stored in our database for station/object IU2RPR-3. If no packets are shown the sender has not sent any weather packets the latest 10 day(s).
| Time | Temp. | Humidity | Pressure | Rain* | Wind** | Luminosity | Snow |
|---|---|---|---|---|---|---|---|
| 1788280830 | 34.44° C | 36% | 1015.1 hPa | - | - | - | - |
| 1788279628 | 35.56° C | 34% | 1015 hPa | - | - | - | - |
| 1788278427 | 36.11° C | 33% | 1015 hPa | - | - | - | - |
| 1788274822 | 36.11° C | 33% | 1015.3 hPa | - | - | - | - |
| 1788273620 | 35.56° C | 33% | 1015.4 hPa | - | - | - | - |
| 1788272419 | 33.89° C | 35% | 1015.7 hPa | - | - | - | - |
| 1788271218 | 31.11° C | 41% | 1016 hPa | - | - | - | - |
| 1788270016 | 32.78° C | 38% | 1016 hPa | - | - | - | - |
| 1788268815 | 31.11° C | 40% | 1016.3 hPa | - | - | - | - |
| 1788267613 | 31.11° C | 40% | 1016.5 hPa | - | - | - | - |
| 1788266412 | 30° C | 42% | 1016.7 hPa | - | - | - | - |
| 1788265211 | 29.44° C | 43% | 1016.9 hPa | - | - | - | - |
| 1788264009 | 28.33° C | 45% | 1017 hPa | - | - | - | - |
| 1788262808 | 28.89° C | 45% | 1017.1 hPa | - | - | - | - |
| 1788261606 | 28.89° C | 46% | 1017.2 hPa | - | - | - | - |
| 1788260405 | 28.33° C | 48% | 1017.3 hPa | - | - | - | - |
| 1788259204 | 27.22° C | 49% | 1017.3 hPa | - | - | - | - |
| 1788258003 | 27.22° C | 51% | 1017.4 hPa | - | - | - | - |
| 1788256802 | 26.67° C | 52% | 1017.5 hPa | - | - | - | - |
| 1788255600 | 26.11° C | 56% | 1017.4 hPa | - | - | - | - |
| 1788254399 | 25.56° C | 56% | 1017.4 hPa | - | - | - | - |
| 1788253198 | 25.56° C | 58% | 1017.6 hPa | - | - | - | - |
| 1788251997 | 25° C | 54% | 1017.5 hPa | - | - | - | - |
| 1788250795 | 23.89° C | 59% | 1017.6 hPa | - | - | - | - |
| 1788249594 | 23.33° C | 61% | 1017.5 hPa | - | - | - | - |
* Rain since midnight (hover to see other rain measurements)
** Current wind speed in m/s (hover to see current wind gust speed)